sensor_id;sensor_type;location;lat;lon;timestamp;P1;durP1;ratioP1;P2;durP2;ratioP2
70757;SDS011;59316;52.964;7.102;2024-01-30T00:03:09;36.88;;;17.25;;
70757;SDS011;59316;52.964;7.102;2024-01-30T00:08:30;32.28;;;16.50;;
70757;SDS011;59316;52.964;7.102;2024-01-30T00:13:52;32.90;;;15.20;;
70757;SDS011;59316;52.964;7.102;2024-01-30T00:19:13;31.85;;;15.30;;
70757;SDS011;59316;52.964;7.102;2024-01-30T00:24:35;40.10;;;15.35;;
70757;SDS011;59316;52.964;7.102;2024-01-30T00:29:57;30.02;;;14.65;;
70757;SDS011;59316;52.964;7.102;2024-01-30T00:35:18;25.00;;;13.73;;
70757;SDS011;59316;52.964;7.102;2024-01-30T00:40:39;28.60;;;14.50;;
70757;SDS011;59316;52.964;7.102;2024-01-30T00:46:00;34.20;;;15.07;;
70757;SDS011;59316;52.964;7.102;2024-01-30T00:51:22;30.17;;;15.38;;
70757;SDS011;59316;52.964;7.102;2024-01-30T00:56:43;31.38;;;15.27;;
70757;SDS011;59316;52.964;7.102;2024-01-30T01:02:05;31.05;;;16.50;;
70757;SDS011;59316;52.964;7.102;2024-01-30T01:07:26;31.85;;;15.77;;
70757;SDS011;59316;52.964;7.102;2024-01-30T01:12:48;31.98;;;15.10;;
70757;SDS011;59316;52.964;7.102;2024-01-30T01:18:09;31.27;;;15.05;;
70757;SDS011;59316;52.964;7.102;2024-01-30T01:23:30;30.25;;;15.45;;
70757;SDS011;59316;52.964;7.102;2024-01-30T01:28:51;27.92;;;15.88;;
70757;SDS011;59316;52.964;7.102;2024-01-30T01:34:13;38.90;;;16.58;;
70757;SDS011;59316;52.964;7.102;2024-01-30T01:39:35;32.00;;;15.68;;
70757;SDS011;59316;52.964;7.102;2024-01-30T01:44:56;33.67;;;16.02;;
70757;SDS011;59316;52.964;7.102;2024-01-30T01:50:18;33.08;;;16.35;;
70757;SDS011;59316;52.964;7.102;2024-01-30T01:55:42;32.97;;;16.10;;
70757;SDS011;59316;52.964;7.102;2024-01-30T02:01:04;33.58;;;16.38;;
70757;SDS011;59316;52.964;7.102;2024-01-30T02:06:26;32.30;;;16.90;;
70757;SDS011;59316;52.964;7.102;2024-01-30T02:11:47;31.42;;;16.77;;
70757;SDS011;59316;52.964;7.102;2024-01-30T02:17:10;30.92;;;15.40;;
70757;SDS011;59316;52.964;7.102;2024-01-30T02:22:32;30.27;;;15.48;;
70757;SDS011;59316;52.964;7.102;2024-01-30T02:27:55;33.28;;;16.10;;
70757;SDS011;59316;52.964;7.102;2024-01-30T02:33:16;30.58;;;16.20;;
70757;SDS011;59316;52.964;7.102;2024-01-30T02:38:37;31.85;;;16.02;;
70757;SDS011;59316;52.964;7.102;2024-01-30T02:43:59;33.35;;;16.50;;
70757;SDS011;59316;52.964;7.102;2024-01-30T02:49:20;28.70;;;15.02;;
70757;SDS011;59316;52.964;7.102;2024-01-30T02:54:42;33.95;;;17.30;;
70757;SDS011;59316;52.964;7.102;2024-01-30T03:00:04;35.70;;;16.20;;
70757;SDS011;59316;52.964;7.102;2024-01-30T03:05:26;31.02;;;16.63;;
70757;SDS011;59316;52.964;7.102;2024-01-30T03:10:47;34.20;;;16.45;;
70757;SDS011;59316;52.964;7.102;2024-01-30T03:16:09;30.15;;;16.15;;
70757;SDS011;59316;52.964;7.102;2024-01-30T03:21:30;28.98;;;15.10;;
70757;SDS011;59316;52.964;7.102;2024-01-30T03:26:53;32.40;;;16.83;;
70757;SDS011;59316;52.964;7.102;2024-01-30T03:32:14;33.58;;;16.85;;
70757;SDS011;59316;52.964;7.102;2024-01-30T03:37:35;30.35;;;16.95;;
70757;SDS011;59316;52.964;7.102;2024-01-30T03:42:57;35.45;;;18.02;;
70757;SDS011;59316;52.964;7.102;2024-01-30T03:48:19;29.77;;;16.15;;
70757;SDS011;59316;52.964;7.102;2024-01-30T03:53:42;39.67;;;17.33;;
70757;SDS011;59316;52.964;7.102;2024-01-30T03:59:04;29.60;;;17.35;;
70757;SDS011;59316;52.964;7.102;2024-01-30T04:04:25;30.10;;;16.75;;
70757;SDS011;59316;52.964;7.102;2024-01-30T04:09:47;30.50;;;16.75;;
70757;SDS011;59316;52.964;7.102;2024-01-30T04:15:09;30.77;;;16.27;;
70757;SDS011;59316;52.964;7.102;2024-01-30T04:20:30;31.80;;;16.50;;
70757;SDS011;59316;52.964;7.102;2024-01-30T04:25:52;30.13;;;16.25;;
70757;SDS011;59316;52.964;7.102;2024-01-30T04:31:13;31.30;;;16.83;;
70757;SDS011;59316;52.964;7.102;2024-01-30T04:36:34;30.92;;;16.25;;
70757;SDS011;59316;52.964;7.102;2024-01-30T04:41:56;31.38;;;15.68;;
70757;SDS011;59316;52.964;7.102;2024-01-30T04:47:17;28.52;;;15.43;;
70757;SDS011;59316;52.964;7.102;2024-01-30T04:52:38;30.52;;;16.52;;
70757;SDS011;59316;52.964;7.102;2024-01-30T04:57:59;32.17;;;15.80;;
70757;SDS011;59316;52.964;7.102;2024-01-30T05:03:21;27.20;;;15.07;;
70757;SDS011;59316;52.964;7.102;2024-01-30T05:08:42;25.58;;;14.98;;
70757;SDS011;59316;52.964;7.102;2024-01-30T05:14:04;28.50;;;15.57;;
70757;SDS011;59316;52.964;7.102;2024-01-30T05:19:26;27.67;;;14.82;;
70757;SDS011;59316;52.964;7.102;2024-01-30T05:24:48;30.58;;;14.52;;
70757;SDS011;59316;52.964;7.102;2024-01-30T05:30:09;24.75;;;14.13;;
70757;SDS011;59316;52.964;7.102;2024-01-30T05:35:31;25.27;;;13.90;;
70757;SDS011;59316;52.964;7.102;2024-01-30T05:40:52;27.45;;;14.55;;
70757;SDS011;59316;52.964;7.102;2024-01-30T05:46:13;28.67;;;14.00;;
70757;SDS011;59316;52.964;7.102;2024-01-30T05:51:35;27.90;;;13.52;;
70757;SDS011;59316;52.964;7.102;2024-01-30T05:56:56;27.02;;;14.02;;
70757;SDS011;59316;52.964;7.102;2024-01-30T06:02:17;27.05;;;13.75;;
70757;SDS011;59316;52.964;7.102;2024-01-30T06:07:39;30.20;;;14.93;;
70757;SDS011;59316;52.964;7.102;2024-01-30T06:13:01;25.27;;;13.95;;
70757;SDS011;59316;52.964;7.102;2024-01-30T06:18:22;26.83;;;14.20;;
70757;SDS011;59316;52.964;7.102;2024-01-30T06:23:44;25.25;;;13.55;;
70757;SDS011;59316;52.964;7.102;2024-01-30T06:29:05;23.25;;;13.32;;
70757;SDS011;59316;52.964;7.102;2024-01-30T06:34:26;27.35;;;13.27;;
70757;SDS011;59316;52.964;7.102;2024-01-30T06:39:47;23.52;;;12.48;;
70757;SDS011;59316;52.964;7.102;2024-01-30T06:45:12;25.20;;;14.07;;
70757;SDS011;59316;52.964;7.102;2024-01-30T06:50:33;26.45;;;13.05;;
70757;SDS011;59316;52.964;7.102;2024-01-30T06:55:55;22.88;;;11.88;;
70757;SDS011;59316;52.964;7.102;2024-01-30T07:01:16;23.08;;;12.30;;
70757;SDS011;59316;52.964;7.102;2024-01-30T07:06:38;20.25;;;12.02;;
70757;SDS011;59316;52.964;7.102;2024-01-30T07:11:59;20.73;;;11.55;;
70757;SDS011;59316;52.964;7.102;2024-01-30T07:17:21;20.85;;;11.40;;
70757;SDS011;59316;52.964;7.102;2024-01-30T07:22:43;23.00;;;12.98;;
70757;SDS011;59316;52.964;7.102;2024-01-30T07:28:04;23.13;;;12.60;;
70757;SDS011;59316;52.964;7.102;2024-01-30T07:33:26;26.33;;;13.02;;
70757;SDS011;59316;52.964;7.102;2024-01-30T07:38:47;23.75;;;12.20;;
70757;SDS011;59316;52.964;7.102;2024-01-30T07:44:08;22.58;;;11.95;;
70757;SDS011;59316;52.964;7.102;2024-01-30T07:49:30;29.13;;;12.35;;
70757;SDS011;59316;52.964;7.102;2024-01-30T07:54:51;19.95;;;11.68;;
70757;SDS011;59316;52.964;7.102;2024-01-30T08:00:13;22.92;;;12.00;;
70757;SDS011;59316;52.964;7.102;2024-01-30T08:05:35;22.02;;;11.60;;
70757;SDS011;59316;52.964;7.102;2024-01-30T08:10:57;23.10;;;12.20;;
70757;SDS011;59316;52.964;7.102;2024-01-30T08:16:18;20.13;;;11.50;;
70757;SDS011;59316;52.964;7.102;2024-01-30T08:21:39;20.80;;;11.38;;
70757;SDS011;59316;52.964;7.102;2024-01-30T08:27:01;19.80;;;10.65;;
70757;SDS011;59316;52.964;7.102;2024-01-30T08:32:22;17.23;;;9.98;;
70757;SDS011;59316;52.964;7.102;2024-01-30T08:37:44;20.17;;;10.00;;
70757;SDS011;59316;52.964;7.102;2024-01-30T08:43:05;19.52;;;10.95;;
70757;SDS011;59316;52.964;7.102;2024-01-30T08:48:27;21.73;;;10.20;;
70757;SDS011;59316;52.964;7.102;2024-01-30T08:53:48;18.92;;;10.48;;
70757;SDS011;59316;52.964;7.102;2024-01-30T08:59:10;17.52;;;9.75;;
70757;SDS011;59316;52.964;7.102;2024-01-30T09:04:33;17.45;;;9.95;;
70757;SDS011;59316;52.964;7.102;2024-01-30T09:09:54;19.83;;;10.02;;
70757;SDS011;59316;52.964;7.102;2024-01-30T09:15:16;18.65;;;10.10;;
70757;SDS011;59316;52.964;7.102;2024-01-30T09:20:37;17.23;;;9.45;;
70757;SDS011;59316;52.964;7.102;2024-01-30T09:25:59;16.48;;;9.65;;
70757;SDS011;59316;52.964;7.102;2024-01-30T09:31:20;15.13;;;8.75;;
70757;SDS011;59316;52.964;7.102;2024-01-30T09:36:42;17.52;;;9.02;;
70757;SDS011;59316;52.964;7.102;2024-01-30T09:42:38;14.18;;;8.63;;
70757;SDS011;59316;52.964;7.102;2024-01-30T09:47:56;15.73;;;8.15;;
70757;SDS011;59316;52.964;7.102;2024-01-30T09:58:43;16.40;;;8.73;;
70757;SDS011;59316;52.964;7.102;2024-01-30T10:04:04;10.95;;;7.68;;
70757;SDS011;59316;52.964;7.102;2024-01-30T10:09:27;20.13;;;8.63;;
70757;SDS011;59316;52.964;7.102;2024-01-30T10:14:51;13.57;;;8.02;;
70757;SDS011;59316;52.964;7.102;2024-01-30T10:20:13;13.77;;;8.13;;
70757;SDS011;59316;52.964;7.102;2024-01-30T10:25:35;14.43;;;7.80;;
70757;SDS011;59316;52.964;7.102;2024-01-30T10:30:59;12.50;;;7.15;;
70757;SDS011;59316;52.964;7.102;2024-01-30T10:36:28;12.32;;;7.53;;
70757;SDS011;59316;52.964;7.102;2024-01-30T10:41:49;13.85;;;6.90;;
70757;SDS011;59316;52.964;7.102;2024-01-30T10:47:17;15.35;;;6.85;;
70757;SDS011;59316;52.964;7.102;2024-01-30T10:52:45;12.73;;;6.72;;
70757;SDS011;59316;52.964;7.102;2024-01-30T10:58:07;11.25;;;6.90;;
70757;SDS011;59316;52.964;7.102;2024-01-30T11:03:29;13.35;;;7.32;;
70757;SDS011;59316;52.964;7.102;2024-01-30T11:09:00;12.95;;;6.95;;
70757;SDS011;59316;52.964;7.102;2024-01-30T11:14:23;16.58;;;7.47;;
70757;SDS011;59316;52.964;7.102;2024-01-30T11:19:45;13.90;;;7.45;;
70757;SDS011;59316;52.964;7.102;2024-01-30T11:25:10;10.75;;;6.82;;
70757;SDS011;59316;52.964;7.102;2024-01-30T11:30:35;14.27;;;7.78;;
70757;SDS011;59316;52.964;7.102;2024-01-30T11:35:57;14.38;;;8.10;;
70757;SDS011;59316;52.964;7.102;2024-01-30T11:41:19;16.60;;;7.25;;
70757;SDS011;59316;52.964;7.102;2024-01-30T11:46:41;16.15;;;8.93;;
70757;SDS011;59316;52.964;7.102;2024-01-30T11:52:03;11.77;;;7.78;;
70757;SDS011;59316;52.964;7.102;2024-01-30T11:57:26;11.75;;;7.18;;
70757;SDS011;59316;52.964;7.102;2024-01-30T12:02:48;15.00;;;7.68;;
70757;SDS011;59316;52.964;7.102;2024-01-30T12:08:15;13.95;;;7.20;;
70757;SDS011;59316;52.964;7.102;2024-01-30T12:13:36;20.08;;;8.50;;
70757;SDS011;59316;52.964;7.102;2024-01-30T12:18:59;15.98;;;7.88;;
70757;SDS011;59316;52.964;7.102;2024-01-30T12:24:21;12.90;;;7.63;;
70757;SDS011;59316;52.964;7.102;2024-01-30T12:29:44;16.60;;;8.25;;
70757;SDS011;59316;52.964;7.102;2024-01-30T12:35:12;14.55;;;8.25;;
70757;SDS011;59316;52.964;7.102;2024-01-30T12:40:36;11.38;;;7.63;;
70757;SDS011;59316;52.964;7.102;2024-01-30T12:46:01;13.30;;;7.95;;
70757;SDS011;59316;52.964;7.102;2024-01-30T12:51:24;10.70;;;7.45;;
70757;SDS011;59316;52.964;7.102;2024-01-30T12:56:45;14.75;;;7.45;;
70757;SDS011;59316;52.964;7.102;2024-01-30T13:02:07;13.15;;;6.97;;
70757;SDS011;59316;52.964;7.102;2024-01-30T13:07:28;12.75;;;7.20;;
70757;SDS011;59316;52.964;7.102;2024-01-30T13:12:49;15.80;;;8.73;;
70757;SDS011;59316;52.964;7.102;2024-01-30T13:18:11;13.68;;;7.65;;
70757;SDS011;59316;52.964;7.102;2024-01-30T13:23:33;13.30;;;6.63;;
70757;SDS011;59316;52.964;7.102;2024-01-30T13:28:54;11.02;;;6.30;;
70757;SDS011;59316;52.964;7.102;2024-01-30T13:34:15;13.02;;;6.80;;
70757;SDS011;59316;52.964;7.102;2024-01-30T13:39:37;9.82;;;4.68;;
70757;SDS011;59316;52.964;7.102;2024-01-30T13:44:59;9.63;;;4.57;;
70757;SDS011;59316;52.964;7.102;2024-01-30T13:50:20;11.60;;;4.38;;
70757;SDS011;59316;52.964;7.102;2024-01-30T13:55:42;9.98;;;4.35;;
70757;SDS011;59316;52.964;7.102;2024-01-30T14:01:03;5.97;;;3.90;;
70757;SDS011;59316;52.964;7.102;2024-01-30T14:06:25;9.15;;;3.80;;
70757;SDS011;59316;52.964;7.102;2024-01-30T14:11:47;7.50;;;3.78;;
70757;SDS011;59316;52.964;7.102;2024-01-30T14:17:08;9.05;;;4.95;;
70757;SDS011;59316;52.964;7.102;2024-01-30T14:22:29;7.30;;;4.65;;
70757;SDS011;59316;52.964;7.102;2024-01-30T14:27:52;7.13;;;4.60;;
70757;SDS011;59316;52.964;7.102;2024-01-30T14:33:13;9.85;;;4.68;;
70757;SDS011;59316;52.964;7.102;2024-01-30T14:38:35;9.63;;;4.55;;
70757;SDS011;59316;52.964;7.102;2024-01-30T14:43:57;8.60;;;4.28;;
70757;SDS011;59316;52.964;7.102;2024-01-30T14:49:18;5.68;;;3.45;;
70757;SDS011;59316;52.964;7.102;2024-01-30T14:54:41;6.75;;;3.40;;
70757;SDS011;59316;52.964;7.102;2024-01-30T15:00:03;3.05;;;2.40;;
70757;SDS011;59316;52.964;7.102;2024-01-30T15:05:26;2.70;;;1.65;;
70757;SDS011;59316;52.964;7.102;2024-01-30T15:10:47;2.47;;;1.60;;
70757;SDS011;59316;52.964;7.102;2024-01-30T15:16:11;2.03;;;1.42;;
70757;SDS011;59316;52.964;7.102;2024-01-30T15:21:33;1.95;;;1.38;;
70757;SDS011;59316;52.964;7.102;2024-01-30T15:26:54;2.10;;;1.30;;
70757;SDS011;59316;52.964;7.102;2024-01-30T15:32:16;1.65;;;1.10;;
70757;SDS011;59316;52.964;7.102;2024-01-30T15:37:37;2.33;;;1.33;;
70757;SDS011;59316;52.964;7.102;2024-01-30T15:42:59;2.08;;;1.40;;
70757;SDS011;59316;52.964;7.102;2024-01-30T15:48:20;2.22;;;1.30;;
70757;SDS011;59316;52.964;7.102;2024-01-30T15:53:42;3.33;;;1.63;;
70757;SDS011;59316;52.964;7.102;2024-01-30T15:59:04;2.25;;;1.83;;
70757;SDS011;59316;52.964;7.102;2024-01-30T16:04:26;2.90;;;1.83;;
70757;SDS011;59316;52.964;7.102;2024-01-30T16:09:47;3.28;;;1.95;;
70757;SDS011;59316;52.964;7.102;2024-01-30T16:15:09;1.77;;;1.35;;
70757;SDS011;59316;52.964;7.102;2024-01-30T16:20:30;2.53;;;1.98;;
70757;SDS011;59316;52.964;7.102;2024-01-30T16:25:52;5.03;;;2.20;;
70757;SDS011;59316;52.964;7.102;2024-01-30T16:31:14;3.42;;;2.40;;
70757;SDS011;59316;52.964;7.102;2024-01-30T16:36:36;4.30;;;2.70;;
70757;SDS011;59316;52.964;7.102;2024-01-30T16:41:58;5.28;;;2.72;;
70757;SDS011;59316;52.964;7.102;2024-01-30T16:47:19;4.28;;;2.72;;
70757;SDS011;59316;52.964;7.102;2024-01-30T16:52:41;4.45;;;3.22;;
70757;SDS011;59316;52.964;7.102;2024-01-30T16:58:03;6.57;;;3.55;;
70757;SDS011;59316;52.964;7.102;2024-01-30T17:03:25;5.47;;;3.53;;
70757;SDS011;59316;52.964;7.102;2024-01-30T17:08:47;5.70;;;3.58;;
70757;SDS011;59316;52.964;7.102;2024-01-30T17:14:08;6.63;;;3.88;;
70757;SDS011;59316;52.964;7.102;2024-01-30T17:19:30;6.35;;;3.85;;
70757;SDS011;59316;52.964;7.102;2024-01-30T17:24:51;8.43;;;4.68;;
70757;SDS011;59316;52.964;7.102;2024-01-30T17:30:13;9.73;;;4.65;;
70757;SDS011;59316;52.964;7.102;2024-01-30T17:35:41;9.60;;;5.00;;
70757;SDS011;59316;52.964;7.102;2024-01-30T17:41:03;11.27;;;5.43;;
70757;SDS011;59316;52.964;7.102;2024-01-30T17:46:32;13.48;;;5.13;;
70757;SDS011;59316;52.964;7.102;2024-01-30T17:51:53;8.02;;;4.63;;
70757;SDS011;59316;52.964;7.102;2024-01-30T17:57:14;9.43;;;4.50;;
70757;SDS011;59316;52.964;7.102;2024-01-30T18:02:36;9.50;;;5.10;;
70757;SDS011;59316;52.964;7.102;2024-01-30T18:07:57;7.05;;;3.88;;
70757;SDS011;59316;52.964;7.102;2024-01-30T18:13:19;7.95;;;4.10;;
70757;SDS011;59316;52.964;7.102;2024-01-30T18:18:40;8.70;;;3.33;;
70757;SDS011;59316;52.964;7.102;2024-01-30T18:24:02;8.98;;;3.28;;
70757;SDS011;59316;52.964;7.102;2024-01-30T18:29:24;5.90;;;2.90;;
70757;SDS011;59316;52.964;7.102;2024-01-30T18:34:45;4.47;;;2.25;;
70757;SDS011;59316;52.964;7.102;2024-01-30T18:40:07;3.28;;;2.10;;
70757;SDS011;59316;52.964;7.102;2024-01-30T18:45:30;4.18;;;1.77;;
70757;SDS011;59316;52.964;7.102;2024-01-30T18:50:51;4.20;;;1.77;;
70757;SDS011;59316;52.964;7.102;2024-01-30T18:56:12;6.93;;;2.33;;
70757;SDS011;59316;52.964;7.102;2024-01-30T19:01:34;8.52;;;2.45;;
70757;SDS011;59316;52.964;7.102;2024-01-30T19:06:55;8.60;;;2.40;;
70757;SDS011;59316;52.964;7.102;2024-01-30T19:12:17;8.05;;;2.50;;
70757;SDS011;59316;52.964;7.102;2024-01-30T19:17:39;7.10;;;2.35;;
70757;SDS011;59316;52.964;7.102;2024-01-30T19:23:00;8.15;;;2.10;;
70757;SDS011;59316;52.964;7.102;2024-01-30T19:28:21;6.57;;;2.30;;
70757;SDS011;59316;52.964;7.102;2024-01-30T19:33:43;8.73;;;2.50;;
70757;SDS011;59316;52.964;7.102;2024-01-30T19:39:04;7.18;;;2.22;;
70757;SDS011;59316;52.964;7.102;2024-01-30T19:44:26;9.23;;;2.08;;
70757;SDS011;59316;52.964;7.102;2024-01-30T19:49:48;9.68;;;2.60;;
70757;SDS011;59316;52.964;7.102;2024-01-30T19:55:09;9.13;;;2.00;;
70757;SDS011;59316;52.964;7.102;2024-01-30T20:00:31;7.38;;;1.73;;
70757;SDS011;59316;52.964;7.102;2024-01-30T20:05:52;8.80;;;2.90;;
70757;SDS011;59316;52.964;7.102;2024-01-30T20:11:14;11.70;;;2.50;;
70757;SDS011;59316;52.964;7.102;2024-01-30T20:16:39;10.77;;;3.22;;
70757;SDS011;59316;52.964;7.102;2024-01-30T20:22:03;12.15;;;2.63;;
70757;SDS011;59316;52.964;7.102;2024-01-30T20:27:24;9.95;;;2.40;;
70757;SDS011;59316;52.964;7.102;2024-01-30T20:32:46;14.23;;;2.75;;
70757;SDS011;59316;52.964;7.102;2024-01-30T20:38:07;14.60;;;2.10;;
70757;SDS011;59316;52.964;7.102;2024-01-30T20:43:29;11.55;;;2.20;;
70757;SDS011;59316;52.964;7.102;2024-01-30T20:48:50;10.65;;;2.03;;
70757;SDS011;59316;52.964;7.102;2024-01-30T20:54:12;12.80;;;1.95;;
70757;SDS011;59316;52.964;7.102;2024-01-30T20:59:34;6.53;;;1.70;;
70757;SDS011;59316;52.964;7.102;2024-01-30T21:04:55;9.30;;;1.58;;
70757;SDS011;59316;52.964;7.102;2024-01-30T21:10:17;14.05;;;1.85;;
70757;SDS011;59316;52.964;7.102;2024-01-30T21:15:39;13.77;;;1.45;;
70757;SDS011;59316;52.964;7.102;2024-01-30T21:21:00;12.30;;;2.60;;
70757;SDS011;59316;52.964;7.102;2024-01-30T21:26:21;8.82;;;1.55;;
70757;SDS011;59316;52.964;7.102;2024-01-30T21:31:45;8.60;;;1.75;;
70757;SDS011;59316;52.964;7.102;2024-01-30T21:37:06;9.65;;;1.77;;
70757;SDS011;59316;52.964;7.102;2024-01-30T21:42:28;6.10;;;1.67;;
70757;SDS011;59316;52.964;7.102;2024-01-30T21:47:50;9.43;;;1.50;;
70757;SDS011;59316;52.964;7.102;2024-01-30T21:53:11;6.10;;;1.35;;
70757;SDS011;59316;52.964;7.102;2024-01-30T21:58:33;7.68;;;1.27;;
70757;SDS011;59316;52.964;7.102;2024-01-30T22:03:54;5.00;;;0.77;;
70757;SDS011;59316;52.964;7.102;2024-01-30T22:09:16;5.30;;;1.10;;
70757;SDS011;59316;52.964;7.102;2024-01-30T22:14:37;4.55;;;1.00;;
70757;SDS011;59316;52.964;7.102;2024-01-30T22:19:58;3.67;;;0.90;;
70757;SDS011;59316;52.964;7.102;2024-01-30T22:25:20;5.32;;;0.82;;
70757;SDS011;59316;52.964;7.102;2024-01-30T22:30:41;5.53;;;0.70;;
70757;SDS011;59316;52.964;7.102;2024-01-30T22:36:02;4.15;;;0.98;;
70757;SDS011;59316;52.964;7.102;2024-01-30T22:41:24;2.10;;;0.70;;
70757;SDS011;59316;52.964;7.102;2024-01-30T22:46:46;1.50;;;0.70;;
70757;SDS011;59316;52.964;7.102;2024-01-30T22:52:08;6.68;;;1.00;;
70757;SDS011;59316;52.964;7.102;2024-01-30T22:57:29;2.85;;;0.68;;
70757;SDS011;59316;52.964;7.102;2024-01-30T23:02:51;2.17;;;0.60;;
70757;SDS011;59316;52.964;7.102;2024-01-30T23:08:13;5.55;;;0.88;;
70757;SDS011;59316;52.964;7.102;2024-01-30T23:13:34;5.40;;;1.02;;
70757;SDS011;59316;52.964;7.102;2024-01-30T23:19:00;3.13;;;0.95;;
70757;SDS011;59316;52.964;7.102;2024-01-30T23:24:21;5.68;;;1.00;;
70757;SDS011;59316;52.964;7.102;2024-01-30T23:29:43;6.18;;;1.73;;
70757;SDS011;59316;52.964;7.102;2024-01-30T23:35:04;4.22;;;1.02;;
70757;SDS011;59316;52.964;7.102;2024-01-30T23:40:26;6.38;;;1.05;;
70757;SDS011;59316;52.964;7.102;2024-01-30T23:45:48;6.78;;;1.10;;
70757;SDS011;59316;52.964;7.102;2024-01-30T23:51:10;5.18;;;1.10;;
70757;SDS011;59316;52.964;7.102;2024-01-30T23:56:37;3.58;;;1.10;;
